createdAt,value
2023-03-15T00:02:27.647Z,4.86
2023-03-15T00:04:58.088Z,4.85
2023-03-15T00:07:26.135Z,4.84
2023-03-15T00:09:54.393Z,4.88
2023-03-15T00:12:24.147Z,4.91
2023-03-15T00:14:52.502Z,4.90
2023-03-15T00:17:22.884Z,4.87
2023-03-15T00:19:51.092Z,4.89
2023-03-15T00:22:23.382Z,4.90
2023-03-15T00:24:51.516Z,4.90
2023-03-15T00:27:19.657Z,4.89
2023-03-15T00:29:47.768Z,4.87
2023-03-15T00:32:15.838Z,4.87
2023-03-15T00:34:49.274Z,4.89
2023-03-15T00:37:19.769Z,4.87
2023-03-15T00:39:49.863Z,4.80
2023-03-15T00:42:17.965Z,4.82
2023-03-15T00:44:46.633Z,4.81
2023-03-15T00:47:16.049Z,4.81
2023-03-15T00:49:44.157Z,4.82
2023-03-15T00:52:12.700Z,4.78
2023-03-15T00:54:41.950Z,4.76
2023-03-15T00:57:11.589Z,4.76
2023-03-15T00:59:39.733Z,4.76
2023-03-15T01:02:08.855Z,4.77
2023-03-15T01:04:37.005Z,4.76
2023-03-15T01:07:05.183Z,4.79
2023-03-15T01:09:33.520Z,4.75
2023-03-15T01:12:01.522Z,4.75
2023-03-15T01:14:35.411Z,4.74
2023-03-15T01:17:03.508Z,4.70
2023-03-15T01:19:31.536Z,4.64
2023-03-15T01:21:59.596Z,4.68
2023-03-15T01:24:27.707Z,4.69
2023-03-15T01:26:55.767Z,4.70
2023-03-15T01:29:23.778Z,4.68
2023-03-15T01:31:53.429Z,4.70
2023-03-15T01:34:21.624Z,4.68
2023-03-15T01:36:51.511Z,4.70
2023-03-15T01:39:20.085Z,4.65
2023-03-15T01:41:48.211Z,4.68
2023-03-15T01:44:17.004Z,4.65
2023-03-15T01:46:46.681Z,4.63
2023-03-15T01:49:23.026Z,4.67
2023-03-15T01:51:54.692Z,4.68
2023-03-15T01:54:25.344Z,4.71
2023-03-15T01:56:55.445Z,4.71
2023-03-15T01:59:26.467Z,4.74
2023-03-15T02:01:55.348Z,4.73
2023-03-15T02:04:26.735Z,4.71
2023-03-15T02:06:59.413Z,4.73
2023-03-15T02:09:34.219Z,4.68
2023-03-15T02:12:02.964Z,4.70
2023-03-15T02:14:32.282Z,4.68
2023-03-15T02:17:01.644Z,4.71
2023-03-15T02:19:37.572Z,4.75
2023-03-15T02:22:12.390Z,4.77
2023-03-15T02:24:47.648Z,4.75
2023-03-15T02:27:15.814Z,4.75
2023-03-15T02:29:45.316Z,4.74
2023-03-15T02:32:13.431Z,4.68
2023-03-15T02:34:41.444Z,4.69
2023-03-15T02:37:10.907Z,4.67
2023-03-15T02:39:38.981Z,4.64
2023-03-15T02:42:07.208Z,4.67
2023-03-15T02:44:36.974Z,4.68
2023-03-15T02:47:07.687Z,4.68
2023-03-15T02:49:38.859Z,4.64
2023-03-15T02:52:08.966Z,4.66
2023-03-15T02:54:37.178Z,4.63
2023-03-15T02:57:05.847Z,4.62
2023-03-15T02:59:34.069Z,4.62
2023-03-15T03:02:03.056Z,4.60
2023-03-15T03:04:32.627Z,4.61
2023-03-15T03:07:00.798Z,4.61
2023-03-15T03:09:35.786Z,4.62
2023-03-15T03:12:03.977Z,4.60
2023-03-15T03:14:34.014Z,4.58
2023-03-15T03:17:03.200Z,4.56
2023-03-15T03:19:32.887Z,4.51
2023-03-15T03:22:01.130Z,4.50
2023-03-15T03:24:29.256Z,4.50
2023-03-15T03:26:58.320Z,4.48
2023-03-15T03:29:29.629Z,4.42
2023-03-15T03:32:01.064Z,4.37
2023-03-15T03:34:29.208Z,4.35
2023-03-15T03:36:59.268Z,4.37
2023-03-15T03:39:44.529Z,4.36
2023-03-15T03:42:13.149Z,4.36
2023-03-15T03:44:41.534Z,4.32
2023-03-15T03:47:10.021Z,4.32
2023-03-15T03:49:38.636Z,4.26
2023-03-15T03:52:08.491Z,4.28
2023-03-15T03:54:37.191Z,4.28
2023-03-15T03:57:05.935Z,4.33
2023-03-15T03:59:36.637Z,4.31
2023-03-15T04:02:06.757Z,4.28
2023-03-15T04:04:36.122Z,4.33
2023-03-15T04:07:06.087Z,4.31
2023-03-15T04:09:39.119Z,4.35
2023-03-15T04:12:07.910Z,4.33
2023-03-15T04:14:38.235Z,4.30
2023-03-15T04:17:09.932Z,4.35
2023-03-15T04:19:39.994Z,4.36
2023-03-15T04:22:09.584Z,4.35
2023-03-15T04:25:02.016Z,4.37
2023-03-15T04:28:03.095Z,4.29
2023-03-15T04:30:44.175Z,4.26
2023-03-15T04:33:35.552Z,4.27
2023-03-15T04:36:04.006Z,4.28
2023-03-15T04:38:47.794Z,4.24
2023-03-15T04:41:40.679Z,4.27
2023-03-15T04:44:16.344Z,4.24
2023-03-15T04:47:13.518Z,4.25
2023-03-15T04:50:01.965Z,4.21
2023-03-15T04:52:46.586Z,4.24
2023-03-15T04:55:47.300Z,4.15
2023-03-15T04:58:36.894Z,4.12
2023-03-15T05:01:43.396Z,4.16
2023-03-15T05:04:40.472Z,4.16
2023-03-15T05:07:41.022Z,4.19
2023-03-15T05:10:31.508Z,4.18
2023-03-15T05:13:19.118Z,4.19
2023-03-15T05:16:00.455Z,4.19
2023-03-15T05:18:41.178Z,4.20
2023-03-15T05:21:15.111Z,4.19
2023-03-15T05:23:57.415Z,4.19
2023-03-15T05:26:54.377Z,4.20
2023-03-15T05:29:57.834Z,4.25
2023-03-15T05:33:04.876Z,4.26
2023-03-15T05:35:56.449Z,4.34
2023-03-15T05:38:47.428Z,4.41
2023-03-15T05:41:48.372Z,4.46
2023-03-15T05:44:34.044Z,4.51
2023-03-15T05:47:24.094Z,4.55
2023-03-15T05:50:11.910Z,4.58
2023-03-15T05:53:00.507Z,4.62
2023-03-15T05:55:54.965Z,4.66
2023-03-15T05:58:53.621Z,4.73
2023-03-15T06:01:37.061Z,4.75
2023-03-15T06:04:20.273Z,4.86
2023-03-15T06:06:49.888Z,4.92
2023-03-15T06:09:19.863Z,4.99
2023-03-15T06:11:48.622Z,5.05
2023-03-15T06:14:17.953Z,5.04
2023-03-15T06:16:50.129Z,5.01
2023-03-15T06:19:19.205Z,5.07
2023-03-15T06:21:47.565Z,5.14
2023-03-15T06:24:28.682Z,5.22
2023-03-15T06:26:56.902Z,5.31
2023-03-15T06:29:25.154Z,5.28
2023-03-15T06:31:55.444Z,5.30
2023-03-15T06:34:25.484Z,5.21
2023-03-15T06:36:54.598Z,5.27
2023-03-15T06:39:23.925Z,5.22
2023-03-15T06:41:57.512Z,5.24
2023-03-15T06:44:27.756Z,5.27
2023-03-15T06:47:00.197Z,5.36
2023-03-15T06:49:28.602Z,5.37
2023-03-15T06:51:57.152Z,5.39
2023-03-15T06:54:25.438Z,5.40
2023-03-15T06:56:54.894Z,5.50
2023-03-15T06:59:23.072Z,5.60
